Aérodrome :
LOGIN :

S'inscrire | Disclaimer

   EN    FR    IT 

 










Légende :    VFR   VFR Marginal   IFR   IFR Intensif   IFR Très Intensif
Visi : 
Plafond : 
>= 8 km
>= 3000ft
5 à 8 km
1000 à 3000 ft
1500m à 5 km
500 à 1000 ft
800 à 1500m
200 à 500 ft
< 800m
< 200 ft
Symboles :   Orages  Brouillard  Fortes neiges  Fortes précipitations  Vent > 20 kt
SIGMETs :   Divers  Orages  Givrage  Turbulence  Onde Orograph.  Cendres Volcan.







- Altitude de l'aérodrome : 121 ft
- Code IATA : HUY
- Voir les cartes d'approche


EGNJ - Humberside

DERNIER METAR :
  • 280750Z 32008KT 9999 FEW020 SCT037 08/05 Q1017

METARs EXPIRÉS :
  • 280720Z 31008KT 9999 SCT037 07/05 Q1017
  • 280650Z 31008KT 9999 FEW035 06/04 Q1017
  • 280620Z 32008KT 9999 FEW035 06/04 Q1017
  • 280550Z 31006KT 9999 FEW035 05/04 Q1016
  • 280520Z 30008KT 9999 FEW035 05/03 Q1016

TAF TAF EGNJ
Valide du 28 à 06h jusqu'au 28 à 15h UTC


280454Z 2806/2815 34005KT 9999 FEW035 SCT040
ATIS : +44 1652 682 020
Pas de NOTAMs connus pour ce terrain.



MET'MAP, la Météo Aéronautique d'un coup d'oeil ! - Copyright ORBIFLY Décembre 2007 - Disclaimer

ORBIFLY MET'MAP TEAM :

Programmation & Développement : Alexandra Zaïnal
Conception & Développement : Baudouin d'Aumeries
Co-Programmation & Développement : Marc-Olivier Méhu
Soutien technique & logistique : Manuel Goepfert

Contact : metmap@orbifly.com




SOURCES & CREDITS :

   NOAA